createdAt,value
2019-02-16T00:00:17.493Z,1023.90
2019-02-16T00:01:17.460Z,1023.89
2019-02-16T00:02:17.433Z,1023.88
2019-02-16T00:03:17.427Z,1023.86
2019-02-16T00:04:17.398Z,1023.89
2019-02-16T00:05:17.376Z,1023.84
2019-02-16T00:06:17.349Z,1023.89
2019-02-16T00:07:17.327Z,1023.85
2019-02-16T00:08:17.328Z,1023.88
2019-02-16T00:09:17.299Z,1023.86
2019-02-16T00:10:17.271Z,1023.84
2019-02-16T00:11:17.269Z,1023.80
2019-02-16T00:12:17.232Z,1023.84
2019-02-16T00:13:17.232Z,1023.79
2019-02-16T00:14:17.194Z,1023.83
2019-02-16T00:15:17.174Z,1023.83
2019-02-16T00:16:17.152Z,1023.81
2019-02-16T00:17:17.133Z,1023.81
2019-02-16T00:18:17.129Z,1023.81
2019-02-16T00:19:17.095Z,1023.82
2019-02-16T00:20:17.089Z,1023.82
2019-02-16T00:21:17.055Z,1023.75
2019-02-16T00:22:17.035Z,1023.80
2019-02-16T00:23:17.031Z,1023.81
2019-02-16T00:24:17.001Z,1023.82
2019-02-16T00:25:16.983Z,1023.81
2019-02-16T00:26:16.957Z,1023.82
2019-02-16T00:27:16.933Z,1023.80
2019-02-16T00:28:16.938Z,1023.79
2019-02-16T00:29:16.898Z,1023.82
2019-02-16T00:30:16.879Z,1023.83
2019-02-16T00:31:16.874Z,1023.81
2019-02-16T00:32:16.835Z,1023.84
2019-02-16T00:33:16.819Z,1023.82
2019-02-16T00:34:16.798Z,1023.82
2019-02-16T00:35:16.784Z,1023.81
2019-02-16T00:36:16.755Z,1023.80
2019-02-16T00:37:16.752Z,1023.75
2019-02-16T00:38:16.732Z,1023.76
2019-02-16T00:39:16.700Z,1023.77
2019-02-16T00:40:16.697Z,1023.75
2019-02-16T00:41:16.658Z,1023.76
2019-02-16T00:42:17.154Z,1023.79
2019-02-16T00:43:16.623Z,1023.77
2019-02-16T00:44:16.598Z,1023.74
2019-02-16T00:45:16.603Z,1023.72
2019-02-16T00:46:16.585Z,1023.74
2019-02-16T00:47:16.544Z,1023.76
2019-02-16T00:48:16.519Z,1023.76
2019-02-16T00:49:16.499Z,1023.74
2019-02-16T00:50:16.473Z,1023.74
2019-02-16T00:51:16.479Z,1023.72
2019-02-16T00:52:16.457Z,1023.69
2019-02-16T00:53:16.419Z,1023.73
2019-02-16T00:54:16.401Z,1023.71
2019-02-16T00:55:16.394Z,1023.71
2019-02-16T00:56:16.360Z,1023.69
2019-02-16T00:57:16.334Z,1023.65
2019-02-16T00:58:16.327Z,1023.66
2019-02-16T00:59:16.316Z,1023.65
2019-02-16T01:00:16.282Z,1023.67
2019-02-16T01:01:16.261Z,1023.63
2019-02-16T01:02:16.253Z,1023.62
2019-02-16T01:03:16.224Z,1023.62
2019-02-16T01:04:16.203Z,1023.63
2019-02-16T01:05:17.214Z,1023.60
2019-02-16T01:06:16.180Z,1023.54
2019-02-16T01:07:16.140Z,1023.54
2019-02-16T01:08:16.124Z,1023.54
2019-02-16T01:09:16.120Z,1023.52
2019-02-16T01:10:16.088Z,1023.53
2019-02-16T01:11:16.063Z,1023.56
2019-02-16T01:12:16.060Z,1023.57
2019-02-16T01:13:16.030Z,1023.59
2019-02-16T01:14:16.048Z,1023.58
2019-02-16T01:15:15.982Z,1023.56
2019-02-16T01:16:15.979Z,1023.59
2019-02-16T01:17:15.999Z,1023.56
2019-02-16T01:18:15.924Z,1023.55
2019-02-16T01:19:15.916Z,1023.53
2019-02-16T01:20:15.882Z,1023.52
2019-02-16T01:21:22.526Z,1023.50
2019-02-16T01:22:15.868Z,1023.55
2019-02-16T01:23:15.820Z,1023.54
2019-02-16T01:24:15.815Z,1023.52
2019-02-16T01:25:15.779Z,1023.50
2019-02-16T01:26:15.784Z,1023.50
2019-02-16T01:27:15.743Z,1023.48
2019-02-16T01:28:15.719Z,1023.47
2019-02-16T01:29:15.701Z,1023.50
2019-02-16T01:30:15.679Z,1023.50
2019-02-16T01:31:15.661Z,1023.43
2019-02-16T01:32:15.657Z,1023.45
2019-02-16T01:33:15.634Z,1023.47
2019-02-16T01:34:15.603Z,1023.50
2019-02-16T01:35:15.599Z,1023.44
2019-02-16T01:36:15.568Z,1023.43
2019-02-16T01:37:15.544Z,1023.43
2019-02-16T01:38:15.524Z,1023.43
2019-02-16T01:39:15.502Z,1023.42
2019-02-16T01:40:15.496Z,1023.39
2019-02-16T01:41:15.463Z,1023.44
2019-02-16T01:42:15.447Z,1023.44
2019-02-16T01:43:15.419Z,1023.40
2019-02-16T01:44:15.421Z,1023.37
2019-02-16T01:45:15.380Z,1023.36
2019-02-16T01:46:15.363Z,1023.39
2019-02-16T01:47:15.343Z,1023.40
2019-02-16T01:48:15.319Z,1023.37
2019-02-16T01:49:15.302Z,1023.32
2019-02-16T01:50:15.300Z,1023.33
2019-02-16T01:51:15.259Z,1023.36
2019-02-16T01:52:15.236Z,1023.32
2019-02-16T01:53:15.220Z,1023.30
2019-02-16T01:54:15.201Z,1023.33
2019-02-16T01:55:15.186Z,1023.31
2019-02-16T01:56:15.181Z,1023.30
2019-02-16T01:57:15.163Z,1023.32
2019-02-16T01:58:15.119Z,1023.31
2019-02-16T01:59:15.100Z,1023.30
2019-02-16T02:00:15.080Z,1023.32
2019-02-16T02:01:15.058Z,1023.25
2019-02-16T02:02:15.039Z,1023.29
2019-02-16T02:03:15.038Z,1023.27
2019-02-16T02:04:14.997Z,1023.22
2019-02-16T02:05:14.978Z,1023.21
2019-02-16T02:06:14.968Z,1023.24
2019-02-16T02:07:14.970Z,1023.24
2019-02-16T02:08:14.939Z,1023.24
2019-02-16T02:09:14.892Z,1023.23
2019-02-16T02:10:14.879Z,1023.20
2019-02-16T02:11:14.858Z,1023.18
2019-02-16T02:12:14.837Z,1023.18
2019-02-16T02:13:14.818Z,1023.18
2019-02-16T02:14:14.821Z,1023.18
2019-02-16T02:15:14.779Z,1023.19
2019-02-16T02:16:14.755Z,1023.16
2019-02-16T02:17:14.738Z,1023.19
2019-02-16T02:18:14.717Z,1023.17
2019-02-16T02:19:14.712Z,1023.15
2019-02-16T02:20:14.674Z,1023.14
2019-02-16T02:21:14.660Z,1023.19
2019-02-16T02:22:14.636Z,1023.16
2019-02-16T02:23:14.635Z,1023.19
2019-02-16T02:24:14.594Z,1023.21
2019-02-16T02:25:14.584Z,1023.19
2019-02-16T02:26:14.551Z,1023.21
2019-02-16T02:27:15.185Z,1023.23
2019-02-16T02:28:14.516Z,1023.22
2019-02-16T02:29:14.516Z,1023.25
2019-02-16T02:30:14.493Z,1023.26
2019-02-16T02:31:14.459Z,1023.24
2019-02-16T02:32:14.430Z,1023.26
2019-02-16T02:33:14.410Z,1023.24
2019-02-16T02:34:14.391Z,1023.25
2019-02-16T02:35:14.377Z,1023.27
2019-02-16T02:36:14.363Z,1023.26
2019-02-16T02:37:14.344Z,1023.22
2019-02-16T02:38:14.311Z,1023.24
2019-02-16T02:39:14.310Z,1023.27
2019-02-16T02:40:14.271Z,1023.27
2019-02-16T02:41:14.250Z,1023.26
2019-02-16T02:42:14.247Z,1023.24
2019-02-16T02:43:14.209Z,1023.26
2019-02-16T02:44:14.194Z,1023.31
2019-02-16T02:45:14.175Z,1023.28
2019-02-16T02:46:14.164Z,1023.30
2019-02-16T02:47:14.145Z,1023.27
2019-02-16T02:48:14.115Z,1023.25
2019-02-16T02:49:14.098Z,1023.24
2019-02-16T02:50:14.061Z,1023.21
2019-02-16T02:51:14.051Z,1023.24
2019-02-16T02:52:14.041Z,1023.17
2019-02-16T02:53:14.007Z,1023.20
2019-02-16T02:54:13.999Z,1023.19
2019-02-16T02:55:13.967Z,1023.21
2019-02-16T02:56:13.945Z,1023.19
2019-02-16T02:57:13.925Z,1023.21
2019-02-16T02:58:13.926Z,1023.25
2019-02-16T02:59:13.884Z,1023.22
2019-02-16T03:00:13.868Z,1023.18
2019-02-16T03:01:13.848Z,1023.24
2019-02-16T03:02:13.823Z,1023.22
2019-02-16T03:03:13.801Z,1023.20
2019-02-16T03:04:13.805Z,1023.18
2019-02-16T03:05:13.760Z,1023.17
2019-02-16T03:06:13.751Z,1023.15
2019-02-16T03:07:13.725Z,1023.14
2019-02-16T03:08:13.694Z,1023.12
2019-02-16T03:09:13.679Z,1023.10
2019-02-16T03:10:13.675Z,1023.10
2019-02-16T03:11:13.637Z,1023.05
2019-02-16T03:12:13.658Z,1023.07
2019-02-16T03:13:13.603Z,1023.07
2019-02-16T03:14:13.579Z,1023.05
2019-02-16T03:15:13.557Z,1023.08
2019-02-16T03:16:13.538Z,1023.08
2019-02-16T03:17:13.519Z,1023.07
2019-02-16T03:18:13.508Z,1023.08
2019-02-16T03:19:13.474Z,1023.01
2019-02-16T03:20:13.474Z,1023.05
2019-02-16T03:21:13.431Z,1023.01
2019-02-16T03:22:13.411Z,1023.01
2019-02-16T03:23:13.411Z,1023.00
2019-02-16T03:24:13.371Z,1022.98
2019-02-16T03:25:13.348Z,1022.97
2019-02-16T03:26:13.345Z,1022.95
2019-02-16T03:27:13.310Z,1022.92
2019-02-16T03:28:13.307Z,1022.92
2019-02-16T03:29:13.290Z,1022.92
2019-02-16T03:30:13.253Z,1022.98
2019-02-16T03:31:13.257Z,1022.98
2019-02-16T03:32:13.207Z,1022.98
2019-02-16T03:33:13.188Z,1022.99
2019-02-16T03:34:13.167Z,1022.99
2019-02-16T03:35:13.144Z,1023.03
2019-02-16T03:36:13.126Z,1023.02
2019-02-16T03:37:13.121Z,1023.02
2019-02-16T03:38:13.100Z,1023.08
2019-02-16T03:39:13.075Z,1023.04
2019-02-16T03:40:13.041Z,1023.01
2019-02-16T03:41:13.022Z,1023.00
2019-02-16T03:42:13.001Z,1022.95
2019-02-16T03:43:12.987Z,1022.96
2019-02-16T03:44:12.974Z,1022.95
2019-02-16T03:45:12.966Z,1022.91
2019-02-16T03:46:12.916Z,1022.90
2019-02-16T03:47:12.973Z,1022.88
2019-02-16T03:48:12.875Z,1022.92
2019-02-16T03:49:12.854Z,1022.86
2019-02-16T03:50:12.832Z,1022.89
2019-02-16T03:51:12.832Z,1022.91
2019-02-16T03:52:14.162Z,1022.90
2019-02-16T03:53:12.777Z,1022.89
2019-02-16T03:54:12.755Z,1022.91
2019-02-16T03:55:12.738Z,1022.90
2019-02-16T03:56:12.708Z,1022.86
2019-02-16T03:57:12.711Z,1022.88
2019-02-16T03:58:12.672Z,1022.83
2019-02-16T03:59:12.647Z,1022.87
2019-02-16T04:00:12.630Z,1022.88
2019-02-16T04:01:12.606Z,1022.87
2019-02-16T04:02:12.586Z,1022.87
2019-02-16T04:03:12.586Z,1022.87
2019-02-16T04:04:12.544Z,1022.89
2019-02-16T04:05:12.527Z,1022.85
2019-02-16T04:06:12.505Z,1022.85
2019-02-16T04:07:12.484Z,1022.83
2019-02-16T04:08:12.458Z,1022.87
2019-02-16T04:09:12.458Z,1022.86
2019-02-16T04:10:12.426Z,1022.84
2019-02-16T04:11:12.398Z,1022.82
2019-02-16T04:12:12.379Z,1022.87
2019-02-16T04:13:12.356Z,1022.84
2019-02-16T04:14:12.336Z,1022.86
2019-02-16T04:15:12.337Z,1022.86
2019-02-16T04:16:12.319Z,1022.84
2019-02-16T04:17:12.273Z,1022.82
2019-02-16T04:18:12.255Z,1022.83
2019-02-16T04:19:12.232Z,1022.82
2019-02-16T04:20:12.224Z,1022.84
2019-02-16T04:21:12.210Z,1022.82
2019-02-16T04:22:12.178Z,1022.82
2019-02-16T04:23:12.150Z,1022.84
2019-02-16T04:24:12.131Z,1022.81
2019-02-16T04:25:12.111Z,1022.82
2019-02-16T04:26:12.107Z,1022.82
2019-02-16T04:27:12.069Z,1022.83
2019-02-16T04:28:12.064Z,1022.83
2019-02-16T04:29:12.033Z,1022.83
2019-02-16T04:30:12.009Z,1022.80
2019-02-16T04:31:11.983Z,1022.81
2019-02-16T04:32:11.984Z,1022.81
2019-02-16T04:33:11.941Z,1022.80
2019-02-16T04:34:11.927Z,1022.74
2019-02-16T04:35:11.905Z,1022.76
2019-02-16T04:36:11.886Z,1022.79
2019-02-16T04:37:11.877Z,1022.76
2019-02-16T04:38:11.857Z,1022.78
2019-02-16T04:39:11.817Z,1022.79
2019-02-16T04:40:11.799Z,1022.78
2019-02-16T04:41:11.778Z,1022.78
2019-02-16T04:42:11.775Z,1022.80
2019-02-16T04:43:11.754Z,1022.78
2019-02-16T04:44:11.718Z,1022.75
2019-02-16T04:45:11.731Z,1022.73
2019-02-16T04:46:11.677Z,1022.70
2019-02-16T04:47:11.652Z,1022.69
2019-02-16T04:48:11.652Z,1022.71
2019-02-16T04:49:11.615Z,1022.72
2019-02-16T04:50:11.596Z,1022.72
2019-02-16T04:51:11.572Z,1022.70
2019-02-16T04:52:11.568Z,1022.72
2019-02-16T04:53:11.531Z,1022.70
2019-02-16T04:54:11.533Z,1022.73
2019-02-16T04:55:11.493Z,1022.75
2019-02-16T04:56:11.484Z,1022.68
2019-02-16T04:57:11.449Z,1022.69
2019-02-16T04:58:11.444Z,1022.64
2019-02-16T04:59:11.420Z,1022.66
2019-02-16T05:00:11.385Z,1022.68
2019-02-16T05:01:11.374Z,1022.65
2019-02-16T05:02:11.349Z,1022.69
2019-02-16T05:03:11.338Z,1022.66
2019-02-16T05:04:11.303Z,1022.63
2019-02-16T05:05:11.283Z,1022.64
2019-02-16T05:06:11.264Z,1022.61
2019-02-16T05:07:11.254Z,1022.64
2019-02-16T05:08:11.241Z,1022.60
2019-02-16T05:09:11.201Z,1022.66
2019-02-16T05:10:11.177Z,1022.65
2019-02-16T05:11:11.159Z,1022.69
2019-02-16T05:12:11.135Z,1022.70
2019-02-16T05:13:11.114Z,1022.64
2019-02-16T05:14:11.114Z,1022.66
2019-02-16T05:15:11.077Z,1022.64
2019-02-16T05:16:11.051Z,1022.66
2019-02-16T05:17:11.029Z,1022.59
2019-02-16T05:18:11.023Z,1022.61
2019-02-16T05:19:11.007Z,1022.66
2019-02-16T05:20:10.979Z,1022.64
2019-02-16T05:21:10.960Z,1022.67
2019-02-16T05:22:10.929Z,1022.65
2019-02-16T05:23:10.902Z,1022.67
2019-02-16T05:24:10.899Z,1022.66
2019-02-16T05:25:10.859Z,1022.66
2019-02-16T05:26:10.856Z,1022.65
2019-02-16T05:27:10.822Z,1022.68
2019-02-16T05:28:10.810Z,1022.73
2019-02-16T05:29:10.777Z,1022.75
2019-02-16T05:30:10.759Z,1022.71
2019-02-16T05:31:10.754Z,1022.73
2019-02-16T05:32:10.720Z,1022.76
2019-02-16T05:33:10.692Z,1022.69
2019-02-16T05:34:10.674Z,1022.71
2019-02-16T05:35:10.654Z,1022.69
2019-02-16T05:36:10.653Z,1022.71
2019-02-16T05:37:10.608Z,1022.66
2019-02-16T05:38:10.589Z,1022.63
2019-02-16T05:39:10.568Z,1022.64
2019-02-16T05:40:10.550Z,1022.62
2019-02-16T05:41:10.541Z,1022.61
2019-02-16T05:42:10.525Z,1022.59
2019-02-16T05:43:10.486Z,1022.63
2019-02-16T05:44:10.461Z,1022.65
2019-02-16T05:45:10.443Z,1022.63
2019-02-16T05:46:10.439Z,1022.62
2019-02-16T05:47:10.420Z,1022.63
2019-02-16T05:48:10.391Z,1022.64
2019-02-16T05:49:10.360Z,1022.65
2019-02-16T05:50:10.340Z,1022.62
2019-02-16T05:51:10.316Z,1022.62
2019-02-16T05:52:10.294Z,1022.66
2019-02-16T05:53:10.290Z,1022.64
2019-02-16T05:54:10.255Z,1022.66
2019-02-16T05:55:10.230Z,1022.66
2019-02-16T05:56:10.231Z,1022.66
2019-02-16T05:57:10.187Z,1022.64
2019-02-16T05:58:10.171Z,1022.65
2019-02-16T05:59:10.171Z,1022.60
2019-02-16T06:00:10.128Z,1022.62
2019-02-16T06:01:10.118Z,1022.69
2019-02-16T06:02:10.135Z,1022.68
2019-02-16T06:03:10.059Z,1022.69
2019-02-16T06:04:10.042Z,1022.70
2019-02-16T06:05:10.022Z,1022.78
2019-02-16T06:06:10.015Z,1022.73
2019-02-16T06:07:09.982Z,1022.78
2019-02-16T06:08:09.961Z,1022.72
2019-02-16T06:09:09.938Z,1022.71
2019-02-16T06:10:09.915Z,1022.70
2019-02-16T06:11:09.919Z,1022.67
2019-02-16T06:12:09.889Z,1022.67
2019-02-16T06:13:09.849Z,1022.68
2019-02-16T06:14:09.839Z,1022.69
2019-02-16T06:15:09.805Z,1022.69
2019-02-16T06:16:09.788Z,1022.71
2019-02-16T06:17:09.781Z,1022.72
2019-02-16T06:18:09.742Z,1022.68
2019-02-16T06:19:09.722Z,1022.69
2019-02-16T06:20:09.706Z,1022.65
2019-02-16T06:21:09.689Z,1022.67
2019-02-16T06:22:09.692Z,1022.66
2019-02-16T06:23:09.654Z,1022.64
2019-02-16T06:24:09.620Z,1022.68
2019-02-16T06:25:09.596Z,1022.75
2019-02-16T06:26:09.577Z,1022.77
2019-02-16T06:27:09.563Z,1022.77
2019-02-16T06:28:09.558Z,1022.81
2019-02-16T06:29:09.540Z,1022.78
2019-02-16T06:30:09.489Z,1022.77
2019-02-16T06:31:09.472Z,1022.76
2019-02-16T06:32:09.447Z,1022.78
2019-02-16T06:33:09.422Z,1022.78
2019-02-16T06:34:09.419Z,1022.79
2019-02-16T06:35:09.411Z,1022.81
2019-02-16T06:36:09.365Z,1022.82
2019-02-16T06:37:09.339Z,1022.84
2019-02-16T06:38:09.324Z,1022.87
2019-02-16T06:39:09.316Z,1022.86
2019-02-16T06:40:09.384Z,1022.91
2019-02-16T06:41:09.275Z,1022.92
2019-02-16T06:42:09.231Z,1022.93
2019-02-16T06:43:09.216Z,1022.92
2019-02-16T06:44:09.193Z,1022.95
2019-02-16T06:45:09.172Z,1022.92
2019-02-16T06:46:09.163Z,1022.95
2019-02-16T06:47:09.141Z,1022.91
2019-02-16T06:48:09.106Z,1022.91
2019-02-16T06:49:09.087Z,1022.88
2019-02-16T06:50:09.066Z,1022.92
2019-02-16T06:51:09.061Z,1022.88
2019-02-16T06:52:09.066Z,1022.91
2019-02-16T06:53:13.183Z,1022.92
2019-02-16T06:54:08.979Z,1022.93
2019-02-16T06:55:08.954Z,1022.95
2019-02-16T06:56:08.937Z,1023.01
2019-02-16T06:57:08.941Z,1023.03
2019-02-16T06:58:08.897Z,1023.02
2019-02-16T06:59:08.887Z,1023.04
2019-02-16T07:00:08.857Z,1023.06
2019-02-16T07:01:08.839Z,1023.03
2019-02-16T07:02:08.839Z,1022.96
2019-02-16T07:03:08.788Z,1022.99
2019-02-16T07:04:08.767Z,1022.98
2019-02-16T07:05:08.744Z,1023.02
2019-02-16T07:06:08.724Z,1023.05
2019-02-16T07:07:08.704Z,1023.04
2019-02-16T07:08:08.710Z,1023.08
2019-02-16T07:09:08.660Z,1023.10
2019-02-16T07:10:08.655Z,1023.11
2019-02-16T07:11:08.619Z,1023.11
2019-02-16T07:12:08.602Z,1023.09
2019-02-16T07:13:08.577Z,1023.08
2019-02-16T07:14:08.567Z,1023.10
2019-02-16T07:15:08.535Z,1023.12
2019-02-16T07:16:08.516Z,1023.14
2019-02-16T07:17:08.489Z,1023.17
2019-02-16T07:18:08.487Z,1023.16
2019-02-16T07:19:08.457Z,1023.18
2019-02-16T07:20:08.423Z,1023.20
2019-02-16T07:21:08.415Z,1023.21
2019-02-16T07:22:08.381Z,1023.23
2019-02-16T07:23:08.365Z,1023.21
2019-02-16T07:24:08.368Z,1023.26
2019-02-16T07:25:08.312Z,1023.23
2019-02-16T07:26:08.303Z,1023.26
2019-02-16T07:27:08.285Z,1023.28
2019-02-16T07:28:08.248Z,1023.29
2019-02-16T07:29:08.250Z,1023.29
2019-02-16T07:30:08.209Z,1023.29
2019-02-16T07:31:08.229Z,1023.34
2019-02-16T07:32:08.169Z,1023.31
2019-02-16T07:33:08.152Z,1023.32
2019-02-16T07:34:08.147Z,1023.37
2019-02-16T07:35:08.134Z,1023.38
2019-02-16T07:36:08.108Z,1023.39
2019-02-16T07:37:08.066Z,1023.40
2019-02-16T07:38:08.053Z,1023.42
2019-02-16T07:39:08.013Z,1023.40
2019-02-16T07:40:08.016Z,1023.43
2019-02-16T07:41:07.996Z,1023.42
2019-02-16T07:42:07.961Z,1023.46
2019-02-16T07:43:07.957Z,1023.43
2019-02-16T07:44:07.926Z,1023.46
2019-02-16T07:45:07.898Z,1023.42
2019-02-16T07:46:07.873Z,1023.43
2019-02-16T07:47:07.863Z,1023.41
2019-02-16T07:48:07.856Z,1023.44
2019-02-16T07:49:07.809Z,1023.42
2019-02-16T07:50:07.785Z,1023.43
2019-02-16T07:51:07.783Z,1023.47
2019-02-16T07:52:07.748Z,1023.50
2019-02-16T07:53:07.727Z,1023.51
2019-02-16T07:54:07.839Z,1023.53
2019-02-16T07:55:07.682Z,1023.55
2019-02-16T07:56:07.732Z,1023.58
2019-02-16T07:57:07.638Z,1023.58
2019-02-16T07:58:07.633Z,1023.56
2019-02-16T07:59:07.634Z,1023.54
2019-02-16T08:00:07.577Z,1023.54
2019-02-16T08:01:07.555Z,1023.50
2019-02-16T08:02:07.536Z,1023.50
2019-02-16T08:03:07.516Z,1023.51
2019-02-16T08:04:07.493Z,1023.46
2019-02-16T08:05:07.489Z,1023.44
2019-02-16T08:06:07.460Z,1023.47
2019-02-16T08:07:07.444Z,1023.45
2019-02-16T08:08:07.409Z,1023.50
2019-02-16T08:09:07.391Z,1023.47
2019-02-16T08:10:07.378Z,1023.52
2019-02-16T08:11:07.371Z,1023.52
2019-02-16T08:12:07.336Z,1023.55
2019-02-16T08:13:07.302Z,1023.54
2019-02-16T08:14:07.280Z,1023.54
2019-02-16T08:15:07.274Z,1023.51
2019-02-16T08:16:07.254Z,1023.49
2019-02-16T08:17:07.222Z,1023.47
2019-02-16T08:18:07.202Z,1023.49
2019-02-16T08:19:07.181Z,1023.46
2019-02-16T08:20:07.159Z,1023.49
2019-02-16T08:21:07.151Z,1023.49
2019-02-16T08:22:07.116Z,1023.51
2019-02-16T08:23:07.118Z,1023.52
2019-02-16T08:24:07.072Z,1023.50
2019-02-16T08:25:07.053Z,1023.50
2019-02-16T08:26:07.045Z,1023.52
2019-02-16T08:27:07.022Z,1023.48
2019-02-16T08:28:06.994Z,1023.52
2019-02-16T08:29:06.973Z,1023.50
2019-02-16T08:30:06.948Z,1023.49
2019-02-16T08:31:06.936Z,1023.50
2019-02-16T08:32:06.922Z,1023.50
2019-02-16T08:33:06.883Z,1023.49
2019-02-16T08:34:06.875Z,1023.50
2019-02-16T08:35:06.848Z,1023.51
2019-02-16T08:36:06.822Z,1023.52
2019-02-16T08:37:06.803Z,1023.51
2019-02-16T08:38:06.795Z,1023.51
2019-02-16T08:39:06.758Z,1023.49
2019-02-16T08:40:06.737Z,1023.47
2019-02-16T08:41:06.725Z,1023.52
2019-02-16T08:42:06.699Z,1023.52
2019-02-16T08:43:06.692Z,1023.54
2019-02-16T08:44:06.670Z,1023.50
2019-02-16T08:45:06.654Z,1023.49
2019-02-16T08:46:06.612Z,1023.48
2019-02-16T08:47:06.597Z,1023.47
2019-02-16T08:48:06.574Z,1023.50
2019-02-16T08:49:06.556Z,1023.51
2019-02-16T08:50:06.547Z,1023.44
2019-02-16T08:51:06.514Z,1023.50
2019-02-16T08:52:06.496Z,1023.48
2019-02-16T08:53:06.478Z,1023.47
2019-02-16T08:54:06.453Z,1023.46
2019-02-16T08:55:06.453Z,1023.45
2019-02-16T08:56:06.408Z,1023.46
2019-02-16T08:57:06.395Z,1023.50
2019-02-16T08:58:06.367Z,1023.44
2019-02-16T08:59:06.344Z,1023.44
2019-02-16T09:00:06.341Z,1023.43
2019-02-16T09:01:06.325Z,1023.46
2019-02-16T09:02:06.289Z,1023.41
2019-02-16T09:03:06.269Z,1023.43
2019-02-16T09:04:06.254Z,1023.42
2019-02-16T09:05:06.231Z,1023.38
2019-02-16T09:06:06.215Z,1023.36
2019-02-16T09:07:06.200Z,1023.37
2019-02-16T09:08:06.177Z,1023.36
2019-02-16T09:09:06.147Z,1023.35
2019-02-16T09:10:06.131Z,1023.32
2019-02-16T09:11:06.121Z,1023.31
2019-02-16T09:12:06.145Z,1023.31
2019-02-16T09:13:06.067Z,1023.31
2019-02-16T09:14:06.041Z,1023.33
2019-02-16T09:15:06.025Z,1023.34
2019-02-16T09:16:06.005Z,1023.37
2019-02-16T09:17:06.008Z,1023.38
2019-02-16T09:18:05.986Z,1023.42
2019-02-16T09:19:05.950Z,1023.42
2019-02-16T09:20:05.924Z,1023.39
2019-02-16T09:21:14.432Z,1023.37
2019-02-16T09:22:05.889Z,1023.33
2019-02-16T09:23:05.861Z,1023.31
2019-02-16T09:24:05.871Z,1023.32
2019-02-16T09:25:05.824Z,1023.26
2019-02-16T09:26:05.808Z,1023.26
2019-02-16T09:27:05.789Z,1023.22
2019-02-16T09:28:05.762Z,1023.24
2019-02-16T09:29:05.765Z,1023.22
2019-02-16T09:30:05.724Z,1023.27
2019-02-16T09:31:05.720Z,1023.32
2019-02-16T09:32:05.694Z,1023.36
2019-02-16T09:33:05.669Z,1023.34
2019-02-16T09:34:05.648Z,1023.34
2019-02-16T09:35:05.646Z,1023.31
2019-02-16T09:36:05.607Z,1023.32
2019-02-16T09:37:05.610Z,1023.36
2019-02-16T09:38:05.571Z,1023.33
2019-02-16T09:39:05.549Z,1023.34
2019-02-16T09:40:05.566Z,1023.35
2019-02-16T09:41:05.507Z,1023.40
2019-02-16T09:42:05.500Z,1023.41
2019-02-16T09:43:05.470Z,1023.49
2019-02-16T09:44:05.462Z,1023.49
2019-02-16T09:45:05.428Z,1023.53
2019-02-16T09:46:05.466Z,1023.47
2019-02-16T09:47:05.389Z,1023.50
2019-02-16T09:48:05.374Z,1023.45
2019-02-16T09:49:05.350Z,1023.43
2019-02-16T09:50:05.332Z,1023.40
2019-02-16T09:51:05.312Z,1023.40
2019-02-16T09:52:05.309Z,1023.38
2019-02-16T09:53:05.274Z,1023.47
2019-02-16T09:54:08.317Z,1023.46
2019-02-16T09:55:05.237Z,1023.48
2019-02-16T09:56:05.214Z,1023.50
2019-02-16T09:57:05.215Z,1023.54
2019-02-16T09:58:05.194Z,1023.57
2019-02-16T09:59:05.159Z,1023.51
2019-02-16T10:00:05.143Z,1023.55
2019-02-16T10:01:05.117Z,1023.52
2019-02-16T10:02:05.101Z,1023.57
2019-02-16T10:03:05.094Z,1023.55
2019-02-16T10:04:05.083Z,1023.59
2019-02-16T10:05:05.039Z,1023.59
2019-02-16T10:06:05.027Z,1023.61
2019-02-16T10:07:04.999Z,1023.58
2019-02-16T10:08:04.987Z,1023.56
2019-02-16T10:09:04.968Z,1023.54
2019-02-16T10:10:04.961Z,1023.55
2019-02-16T10:11:04.928Z,1023.53
2019-02-16T10:12:04.908Z,1023.55
2019-02-16T10:13:04.898Z,1023.53
2019-02-16T10:14:04.871Z,1023.56
2019-02-16T10:15:06.854Z,1023.57
2019-02-16T10:16:04.838Z,1023.59
2019-02-16T10:17:04.811Z,1023.57
2019-02-16T10:18:04.799Z,1023.58
2019-02-16T10:19:04.776Z,1023.60
2019-02-16T10:20:04.784Z,1023.65
2019-02-16T10:21:04.736Z,1023.65
2019-02-16T10:22:04.721Z,1023.59
2019-02-16T10:23:04.700Z,1023.61
2019-02-16T10:24:04.676Z,1023.64
2019-02-16T10:25:04.716Z,1023.63
2019-02-16T10:26:04.660Z,1023.62
2019-02-16T10:27:04.634Z,1023.66
2019-02-16T10:28:04.645Z,1023.66
2019-02-16T10:29:04.582Z,1023.68
2019-02-16T10:30:04.564Z,1023.67
2019-02-16T10:31:04.562Z,1023.72
2019-02-16T10:32:04.536Z,1023.66
2019-02-16T10:33:04.532Z,1023.68
2019-02-16T10:34:04.489Z,1023.71
2019-02-16T10:35:04.468Z,1023.69
2019-02-16T10:36:04.469Z,1023.71
2019-02-16T10:37:04.481Z,1023.70
2019-02-16T10:38:04.435Z,1023.66
2019-02-16T10:39:04.411Z,1023.70
2019-02-16T10:40:06.206Z,1023.69
2019-02-16T10:41:04.364Z,1023.63
2019-02-16T10:42:04.339Z,1023.69
2019-02-16T10:43:04.364Z,1023.67
2019-02-16T10:44:04.320Z,1023.65
2019-02-16T10:45:04.293Z,1023.65
2019-02-16T10:46:04.275Z,1023.61
2019-02-16T10:47:04.253Z,1023.64
2019-02-16T10:48:04.246Z,1023.62
2019-02-16T10:49:04.221Z,1023.57
2019-02-16T10:50:04.196Z,1023.63
2019-02-16T10:51:04.181Z,1023.63
2019-02-16T10:52:04.155Z,1023.65
2019-02-16T10:53:04.134Z,1023.59
2019-02-16T10:54:04.143Z,1023.61
2019-02-16T10:55:04.100Z,1023.64
2019-02-16T10:56:04.090Z,1023.63
2019-02-16T10:57:04.062Z,1023.63
2019-02-16T10:58:04.046Z,1023.60
2019-02-16T10:59:04.049Z,1023.66
2019-02-16T11:00:04.013Z,1023.65
2019-02-16T11:01:03.988Z,1023.65
2019-02-16T11:02:03.981Z,1023.64
2019-02-16T11:03:03.967Z,1023.55
2019-02-16T11:04:03.956Z,1023.57
2019-02-16T11:05:03.926Z,1023.55
2019-02-16T11:06:03.918Z,1023.53
2019-02-16T11:07:03.888Z,1023.50
2019-02-16T11:08:03.870Z,1023.42
2019-02-16T11:09:03.860Z,1023.46
2019-02-16T11:10:03.858Z,1023.43
2019-02-16T11:11:03.848Z,1023.41
2019-02-16T11:12:03.814Z,1023.47
2019-02-16T11:13:03.788Z,1023.42
2019-02-16T11:14:03.770Z,1023.42
2019-02-16T11:15:03.776Z,1023.42
2019-02-16T11:16:03.743Z,1023.42
2019-02-16T11:17:03.742Z,1023.45
2019-02-16T11:18:03.709Z,1023.40
2019-02-16T11:19:03.695Z,1023.42
2019-02-16T11:20:03.679Z,1023.50
2019-02-16T11:21:03.671Z,1023.50
2019-02-16T11:22:04.457Z,1023.48
2019-02-16T11:23:03.655Z,1023.52
2019-02-16T11:24:03.617Z,1023.50
2019-02-16T11:25:03.605Z,1023.52
2019-02-16T11:26:03.602Z,1023.46
2019-02-16T11:27:03.573Z,1023.43
2019-02-16T11:28:03.581Z,1023.40
2019-02-16T11:29:03.540Z,1023.40
2019-02-16T11:30:03.539Z,1023.37
2019-02-16T11:31:03.512Z,1023.40
2019-02-16T11:32:03.497Z,1023.41
2019-02-16T11:33:03.485Z,1023.39
2019-02-16T11:34:03.503Z,1023.36
2019-02-16T11:35:03.458Z,1023.37
2019-02-16T11:36:03.446Z,1023.36
2019-02-16T11:37:03.441Z,1023.35
2019-02-16T11:38:03.416Z,1023.33
2019-02-16T11:39:03.399Z,1023.37
2019-02-16T11:40:03.419Z,1023.35
2019-02-16T11:41:03.374Z,1023.33
2019-02-16T11:42:03.354Z,1023.28
2019-02-16T11:43:03.342Z,1023.29
2019-02-16T11:44:03.345Z,1023.28
2019-02-16T11:45:03.370Z,1023.27
2019-02-16T11:46:03.299Z,1023.23
2019-02-16T11:47:03.290Z,1023.26
2019-02-16T11:48:03.272Z,1023.28
2019-02-16T11:49:03.269Z,1023.26
2019-02-16T11:50:03.246Z,1023.26
2019-02-16T11:51:03.255Z,1023.27
2019-02-16T11:52:12.101Z,1023.23
2019-02-16T11:53:03.209Z,1023.27
2019-02-16T11:54:03.190Z,1023.26
2019-02-16T11:55:03.183Z,1023.29
2019-02-16T11:56:03.194Z,1023.26
2019-02-16T11:57:03.164Z,1023.26
2019-02-16T11:58:03.147Z,1023.27
2019-02-16T11:59:03.145Z,1023.29
2019-02-16T12:00:03.117Z,1023.24
2019-02-16T12:01:03.128Z,1023.25
2019-02-16T12:02:03.097Z,1023.22
2019-02-16T12:03:03.081Z,1023.27
2019-02-16T12:04:03.066Z,1023.22
2019-02-16T12:05:03.062Z,1023.26